Weather History for Paris, TX

Change the Weather History Date:

Tuesday, February 26, 2013

  Actual Average Record
Temperature  
Mean Temperature 46 °F -  
Max Temperature 55 °F 55 °F 80 °F (2009)
Min Temperature 37 °F 38 °F 21 °F (2002)
Degree Days  
Heating Degree Days 19    
Moisture  
Dew Point 31 °F    
Average Humidity 61    
Maximum Humidity 87    
Minimum Humidity 38    
Precipitation  
Precipitation 0.00 in - - ()
Sea Level Pressure  
Sea Level Pressure 29.75 in    
Wind  
Wind Speed 19 mph (WNW)    
Max Wind Speed 28 mph    
Max Gust Speed 34 mph    
Visibility 10 miles    
Events      
Averages and records for this station are not official NWS values.
T = Trace of Precipitation, MM = Missing Value Source: NWS Daily Summary

Daily Weather History Graph

Daily Weather History Graph

Search for Another Location

Airport:

Trip Planner

Search our weather history database for the weather conditions in past years. The results will help you decide how hot, cold, wet, or windy it might be!

Date:

Astronomy

Feb. 26, 2013 Rise Set
Actual Time 6:53 AM CST 6:16 PM CST
Civil Twilight 6:28 AM CST 6:41 PM CST
Nautical Twilight 5:59 AM CST 7:10 PM CST
Astronomical Twilight 5:30 AM CST 7:39 PM CST
Moon 7:27 PM CST (2/26) 7:01 AM CST (2/26)
Length of Visible Light 12h 12m
Length of Day
11h 22m
Full, 99% of the Moon is Illuminated
Feb 26
Full
Mar 4
Last Quarter
Mar 11
New
Mar 19
First Quarter
Mar 27
Full

Hourly Weather History & Observations

Time (CST) Temp. Windchill Dew Point Humidity Pressure Visibility Wind Dir Wind Speed Gust Speed Precip Events Conditions
12:15 AM 39.2 °F 28.5 °F 33.8 °F 81% 29.53 in 10.0 mi WNW 24.2 mph 31.1 mph N/A   Overcast
12:35 AM 37.4 °F 25.6 °F 33.8 °F 87% 29.54 in 10.0 mi WNW 26.5 mph 31.1 mph N/A   Overcast
12:55 AM 37.4 °F 26.6 °F 33.8 °F 87% 29.55 in 10.0 mi West 21.9 mph 29.9 mph N/A   Overcast
1:15 AM 37.4 °F 27.2 °F 33.8 °F 87% 29.56 in 10.0 mi WNW 19.6 mph 25.3 mph N/A   Overcast
1:35 AM 37.4 °F 26.1 °F 32.0 °F 81% 29.56 in 10.0 mi WNW 24.2 mph 31.1 mph N/A   Overcast
1:55 AM 37.4 °F 27.5 °F 32.0 °F 81% 29.56 in 10.0 mi WNW 18.4 mph 29.9 mph N/A   Overcast
2:15 AM 37.4 °F 27.2 °F 32.0 °F 81% 29.57 in 10.0 mi WNW 19.6 mph 28.8 mph N/A   Overcast
2:35 AM 39.2 °F 29.3 °F 32.0 °F 75% 29.58 in 10.0 mi WNW 20.7 mph 27.6 mph N/A   Overcast
2:55 AM 39.2 °F 29.0 °F 32.0 °F 75% 29.57 in 10.0 mi WNW 21.9 mph 32.2 mph N/A   Overcast
3:15 AM 39.2 °F 28.5 °F 32.0 °F 75% 29.58 in 10.0 mi WNW 24.2 mph 29.9 mph N/A   Overcast
3:35 AM 39.2 °F 29.0 °F 30.2 °F 70% 29.59 in 10.0 mi WNW 21.9 mph 34.5 mph N/A   Overcast
3:55 AM 39.2 °F 30.5 °F 30.2 °F 70% 29.60 in 10.0 mi WNW 16.1 mph 32.2 mph N/A   Overcast
4:15 AM 39.2 °F 28.3 °F 32.0 °F 75% 29.60 in 10.0 mi WNW 25.3 mph 34.5 mph N/A   Overcast
4:35 AM 39.2 °F 28.5 °F 30.2 °F 70% 29.60 in 10.0 mi WNW 24.2 mph 31.1 mph N/A   Overcast
4:55 AM 39.2 °F 28.3 °F 32.0 °F 75% 29.61 in 10.0 mi WNW 25.3 mph 32.2 mph N/A   Overcast
5:15 AM 39.2 °F 29.6 °F 32.0 °F 75% 29.60 in 10.0 mi WNW 19.6 mph 25.3 mph N/A   Overcast
5:35 AM 39.2 °F 29.6 °F 32.0 °F 75% 29.62 in 10.0 mi WNW 19.6 mph 28.8 mph N/A   Overcast
5:55 AM 39.2 °F 27.8 °F 30.2 °F 70% 29.64 in 10.0 mi WNW 27.6 mph 31.1 mph N/A   Overcast
6:15 AM 39.2 °F 29.0 °F 30.2 °F 70% 29.65 in 10.0 mi WNW 21.9 mph 27.6 mph N/A   Overcast
6:35 AM 39.2 °F 29.6 °F 30.2 °F 70% 29.66 in 10.0 mi WNW 19.6 mph 29.9 mph N/A   Overcast
6:55 AM 39.2 °F 29.6 °F 30.2 °F 70% 29.67 in 10.0 mi WNW 19.6 mph 26.5 mph N/A   Overcast
7:15 AM 39.2 °F 29.3 °F 30.2 °F 70% 29.69 in 10.0 mi WNW 20.7 mph 29.9 mph N/A   Overcast
7:35 AM 39.2 °F 29.3 °F 32.0 °F 75% 29.69 in 10.0 mi NW 20.7 mph 27.6 mph N/A   Overcast
7:55 AM 39.2 °F 28.7 °F 30.2 °F 70% 29.71 in 10.0 mi WNW 23.0 mph 27.6 mph N/A   Overcast
8:15 AM 39.2 °F 30.2 °F 30.2 °F 70% 29.73 in 10.0 mi WNW 17.3 mph 26.5 mph N/A   Overcast
8:35 AM 39.2 °F 29.6 °F 30.2 °F 70% 29.74 in 10.0 mi WNW 19.6 mph 25.3 mph N/A   Overcast
8:55 AM 39.2 °F 30.5 °F 32.0 °F 75% 29.75 in 10.0 mi WNW 16.1 mph 25.3 mph N/A   Overcast
9:15 AM 39.2 °F 29.6 °F 32.0 °F 75% 29.76 in 10.0 mi WNW 19.6 mph 23.0 mph N/A   Overcast
9:35 AM 39.2 °F 29.0 °F 32.0 °F 75% 29.76 in 10.0 mi WNW 21.9 mph 29.9 mph N/A   Overcast
9:55 AM 39.2 °F 29.6 °F 30.2 °F 70% 29.77 in 10.0 mi WNW 19.6 mph 27.6 mph N/A   Overcast
10:15 AM 41.0 °F 31.6 °F 33.8 °F 76% 29.77 in 10.0 mi WNW 20.7 mph 28.8 mph N/A   Overcast
10:35 AM 42.8 °F 34.0 °F 33.8 °F 70% 29.77 in 10.0 mi WNW 20.7 mph 28.8 mph N/A   Overcast
10:55 AM 44.6 °F 35.9 °F 33.8 °F 66% 29.79 in 10.0 mi NW 23.0 mph 29.9 mph N/A   Overcast
11:15 AM 44.6 °F 36.1 °F 33.8 °F 66% 29.80 in 10.0 mi WNW 21.9 mph 29.9 mph N/A   Overcast
11:35 AM 46.4 °F 39.2 °F 33.8 °F 62% 29.80 in 10.0 mi NW 18.4 mph 28.8 mph N/A   Overcast
11:55 AM 46.4 °F 39.2 °F 33.8 °F 62% 29.81 in 10.0 mi NW 18.4 mph 25.3 mph N/A   Overcast
12:15 PM 46.4 °F 39.8 °F 33.8 °F 62% 29.81 in 10.0 mi WNW 16.1 mph 25.3 mph N/A   Overcast
12:35 PM 48.2 °F - 35.6 °F 62% 29.81 in 10.0 mi NW 19.6 mph 26.5 mph N/A   Overcast
12:55 PM 48.2 °F - 33.8 °F 58% 29.81 in 10.0 mi WNW 15.0 mph 20.7 mph N/A   Overcast
1:15 PM 51.8 °F - 33.8 °F 50% 29.80 in 10.0 mi WNW 16.1 mph 26.5 mph N/A   Overcast
1:35 PM 51.8 °F - 33.8 °F 50% 29.80 in 10.0 mi WNW 17.3 mph 21.9 mph N/A   Overcast
1:55 PM 51.8 °F - 32.0 °F 47% 29.79 in 10.0 mi NW 13.8 mph 26.5 mph N/A   Partly Cloudy
2:15 PM 53.6 °F - 32.0 °F 44% 29.80 in 10.0 mi WNW 17.3 mph 23.0 mph N/A   Partly Cloudy
2:35 PM 55.4 °F - 30.2 °F 38% 29.80 in 10.0 mi WNW 18.4 mph - N/A   Partly Cloudy
2:55 PM 55.4 °F - 30.2 °F 38% 29.79 in 10.0 mi NW 19.6 mph 24.2 mph N/A   Clear
3:15 PM 55.4 °F - 30.2 °F 38% 29.79 in 10.0 mi WNW 17.3 mph 28.8 mph N/A   Clear
3:35 PM 55.4 °F - 30.2 °F 38% 29.80 in 10.0 mi NW 16.1 mph 26.5 mph N/A   Clear
3:55 PM 55.4 °F - 30.2 °F 38% 29.80 in 10.0 mi WNW 15.0 mph 20.7 mph N/A   Clear
4:15 PM 55.4 °F - 30.2 °F 38% 29.80 in 10.0 mi NW 18.4 mph 24.2 mph N/A   Clear
4:35 PM 55.4 °F - 30.2 °F 38% 29.81 in 10.0 mi WNW 17.3 mph - N/A   Clear
4:55 PM 55.4 °F - 30.2 °F 38% 29.81 in 10.0 mi NW 15.0 mph - N/A   Clear
5:15 PM 53.6 °F - 28.4 °F 38% 29.81 in 10.0 mi WNW 10.4 mph - N/A   Clear
5:35 PM 53.6 °F - 28.4 °F 38% 29.81 in 10.0 mi WNW 10.4 mph - N/A   Clear
5:55 PM 51.8 °F - 28.4 °F 41% 29.82 in 10.0 mi West 11.5 mph - N/A   Clear
6:15 PM 51.8 °F - 28.4 °F 41% 29.83 in 10.0 mi West 8.1 mph - N/A   Clear
6:35 PM 48.2 °F - 28.4 °F 46% 29.83 in 10.0 mi WNW 9.2 mph - N/A   Clear
6:55 PM 48.2 °F - 28.4 °F 46% 29.83 in 10.0 mi WNW 5.8 mph - N/A   Clear
7:15 PM 48.2 °F - 28.4 °F 46% 29.84 in 10.0 mi West 5.8 mph - N/A   Clear
7:35 PM 44.6 °F 42.2 °F 28.4 °F 53% 29.85 in 10.0 mi West 4.6 mph - N/A   Clear
7:55 PM 44.6 °F 42.2 °F 28.4 °F 53% 29.86 in 10.0 mi West 4.6 mph - N/A   Clear
8:15 PM 44.6 °F 41.4 °F 28.4 °F 53% 29.87 in 10.0 mi West 5.8 mph - N/A   Clear
8:35 PM 44.6 °F 40.7 °F 28.4 °F 53% 29.88 in 10.0 mi WNW 6.9 mph - N/A   Clear
8:55 PM 42.8 °F 38.0 °F 28.4 °F 57% 29.89 in 10.0 mi NW 8.1 mph - N/A   Clear
9:15 PM 42.8 °F 38.0 °F 28.4 °F 57% 29.90 in 10.0 mi NW 8.1 mph - N/A   Clear
9:35 PM 42.8 °F 38.6 °F 28.4 °F 57% 29.91 in 10.0 mi NW 6.9 mph - N/A   Clear
9:55 PM 44.6 °F 42.2 °F 28.4 °F 53% 29.91 in 10.0 mi WNW 4.6 mph - N/A   Clear
10:15 PM 41.0 °F 38.0 °F 28.4 °F 61% 29.92 in 10.0 mi West 4.6 mph - N/A   Clear
10:55 PM 41.0 °F 38.0 °F 28.4 °F 61% 29.93 in 10.0 mi NW 4.6 mph - N/A   Clear
11:15 PM 42.8 °F 41.1 °F 28.4 °F 57% 29.93 in 10.0 mi NW 3.5 mph - N/A   Clear
11:35 PM 42.8 °F 40.1 °F 28.4 °F 57% 29.93 in 10.0 mi NW 4.6 mph - N/A   Clear
11:55 PM 41.0 °F 38.0 °F 28.4 °F 61% 29.92 in 10.0 mi NNW 4.6 mph - N/A   Clear